모두
Avenger Fld Airport (Sweetwater, TX) SWW 기상
|
Sweetwater, TX (KSWW)
맑은 하늘
바람이 붐 |
|
30 °C |
There is no TAF data available at SWW or any nearby airports.
최근 SWW METAR 이력
| Date | Time (CDT) | Flight Rules | Wind Dir. | Speed | Type | Height AGL (ft) | Visibility | Temp (°C) | Temp (°F) | Dew Point (°C) | Dew Point (°F) | Rel. Humid. | Pressure | Density Altitude | Remarks |
|---|---|---|---|---|---|---|---|---|---|---|---|---|---|---|---|
| 31-8월 | 23:15 | VFR | 140° | 12 kt | 10 miles | 30° | 86° | 13° | 55° | 36% | 30.05 in Hg | 4,524 ft | Wind gusting to 18 KT | ||
| 31-8월 | 22:55 | VFR | 140° | 11 kt | 10 miles | 30° | 86° | 13° | 55° | 34% | 30.05 in Hg | 4,524 ft | Wind gusting to 19 KT | ||
| 31-8월 | 22:35 | VFR | 130° | 8 kt | 10 miles | 30° | 86° | 12° | 53° | 33% | 30.05 in Hg | 4,524 ft | Wind gusting to 15 KT | ||
| 31-8월 | 22:15 | VFR | 130° | 9 kt | 10 miles | 30° | 86° | 12° | 53° | 32% | 30.04 in Hg | 4,534 ft | Wind gusting to 14 KT | ||
| 31-8월 | 21:55 | VFR | 130° | 9 kt | 10 miles | 30° | 86° | 11° | 51° | 31% | 30.03 in Hg | 4,544 ft | |||
| 31-8월 | 21:15 | VFR | 130° | 7 kt | 10 miles | 31° | 87° | 11° | 51° | 29% | 30.01 in Hg | 4,684 ft | |||
| 31-8월 | 20:55 | VFR | 140° | 8 kt | 10 miles | 32° | 89° | 11° | 51° | 29% | 30.01 in Hg | 4,804 ft | |||
| 31-8월 | 20:15 | VFR | 140° | 10 kt | 10 miles | 33° | 91° | 12° | 53° | 27% | 29.99 in Hg | 4,944 ft | |||
| 31-8월 | 19:55 | VFR | 140° | 7 kt | 10 miles | 34° | 93° | 12° | 53° | 26% | 29.99 in Hg | 5,064 ft | |||
| 31-8월 | 19:15 | VFR | 120° | 11 kt | 10 miles | 34° | 93° | 12° | 53° | 25% | 29.99 in Hg | 5,064 ft | |||
| 31-8월 | 18:55 | VFR | 140° | 5 kt | 10 miles | 35° | 95° | 11° | 51° | 24% | 29.99 in Hg | 5,184 ft | |||
| 31-8월 | 18:35 | VFR | 140° | 7 kt | 10 miles | 36° | 96° | 12° | 53° | 23% | 29.99 in Hg | 5,304 ft | |||
| 31-8월 | 18:15 | VFR | 120° | 12 kt | 10 miles | 35° | 95° | 11° | 51° | 24% | 29.99 in Hg | 5,184 ft | Wind gusting to 17 KT | ||
| 31-8월 | 17:55 | VFR | 120° | 11 kt | 10 miles | 35° | 95° | 11° | 51° | 23% | 29.99 in Hg | 5,184 ft | |||
| 31-8월 | 17:35 | VFR | 100° | 10 kt | 10 miles | 36° | 96° | 11° | 51° | 22% | 30.00 in Hg | 5,294 ft | |||
| 31-8월 | 17:15 | VFR | 150° | 6 kt | 10 miles | 36° | 96° | 11° | 51° | 22% | 30.00 in Hg | 5,294 ft | |||
| 31-8월 | 16:55 | VFR | 150° | 6 kt | 10 miles | 37° | 98° | 10° | 50° | 21% | 30.01 in Hg | 5,404 ft | Wind gusting to 14 KT | ||
| 31-8월 | 16:15 | VFR | 90° | 10 kt | 10 miles | 38° | 100° | 10° | 50° | 19% | 30.02 in Hg | 5,514 ft | |||
| 31-8월 | 15:55 | VFR | 120° | 7 kt | 10 miles | 38° | 100° | 10° | 50° | 18% | 30.03 in Hg | 5,504 ft | Wind gusting to 16 KT | ||
| 31-8월 | 15:35 | VFR | 110° | 7 kt | 10 miles | 37° | 98° | 10° | 50° | 20% | 30.04 in Hg | 5,374 ft | |||
| 31-8월 | 15:15 | VFR | 160° | 7 kt | 10 miles | 38° | 100° | 10° | 50° | 20% | 30.05 in Hg | 5,484 ft | Wind gusting to 16 KT | ||
| 31-8월 | 14:55 | VFR | 150° | 8 kt | 10 miles | 36° | 96° | 12° | 53° | 23% | 30.05 in Hg | 5,244 ft | |||
| 31-8월 | 14:35 | VFR | 140° | 8 kt | 10 miles | 37° | 98° | 12° | 53° | 22% | 30.06 in Hg | 5,354 ft | Wind gusting to 14 KT | ||
| 31-8월 | 14:15 | VFR | 100° | 8 kt | 10 miles | 36° | 96° | 11° | 51° | 23% | 30.07 in Hg | 5,224 ft |
로그인
| 귀하의 브라우저는 지원되지 않습니다.. 브라우저를 업그레이드하세요 |
